Lynchburg Regional Preston Glenn Field
KLYH : now visible

Airfield :











YOU CAN JOIN US ON...

 
LOGIN :

Register | Disclaimer

   EN    FR    IT 

 









Legend :    VFR   Marginal VFR   IFR   Intensive IFR   Very Intensive IFR
Visi :
Ceiling :
>= 8 km
>= 3000ft
5 to 8 km
1000 to 3000 ft
1500m to 5 km
500 to 1000 ft
800 to 1500m
200 to 500 ft
< 800m
< 200 ft
Symbols :   Thunderstorms  Fog  Heavy snow  Heavy precipitations  Wind > 20 kt







- Airport Elevation : 938 ft
- IATA code : LYH


KLYH - Lynchburg Regional Preston Glenn Field

CURRENT METAR :
  • 210554Z AUTO 20003KT 10SM CLR 25/23 A2998 RMK AO2 SLP139 T02500228 10322 20244 55000

EXPIRED METARs :
  • 210454Z AUTO 00000KT 10SM CLR 25/23 A2998 RMK AO2 SLP138 T02500228 403670211
  • 210354Z AUTO 18004KT 10SM CLR 26/23 A2998 RMK AO2 SLP137 T02560228

TAF KLYH
Valid from the 21 at 06:00 until the 22 at 06:00 UTC


210558Z 2106/2206 00000KT P6SM SKC
FM211700 21005KT P6SM FEW050
FM212100 21006KT P6SM VCTS SCT050CB SCT250
FM220000 VRB03KT P6SM SCT250
KZDC FIR / North America



MET'MAP, your aeronautical weather chart ! - Copyright ORBIFLY December 2007 - Disclaimer

ORBIFLY MET'MAP TEAM :

Programming & Development : Alexandra Zaïnal
Concept & Development : Baudouin d'Aumeries
Co-Development & Prog : Marc-Olivier Méhu
Technical & hardware support : Manuel Goepfert

Contact : metmap@orbifly.com




SOURCES & CREDITS :

   NOAA       Earth
Advisory